Time;durP1;ratioP1;P1;durP2;ratioP2;P2;SDS_P1;SDS_P2;PMS_P1;PMS_P2;Temp;Humidity;BMP_temperature;BMP_pressure;BME280_temperature;BME280_humidity;BME280_pressure;Samples;Min_cycle;Max_cycle;Signal;HPM_P1;HPM_P2
2022/04/21 00:02:14;;;;;;;;;19.50;16.00;;;;;13.54;43.85;100857.50;4969022;28;49676;-63
2022/04/21 00:04:40;;;;;;;;;19.25;15.50;;;;;13.52;44.17;100858.38;4969173;28;49865;-63
2022/04/21 00:07:05;;;;;;;;;17.75;16.00;;;;;13.49;44.15;100855.69;4968736;28;51275;-63
2022/04/21 00:09:30;;;;;;;;;14.00;14.00;;;;;13.43;44.53;100844.22;4968834;28;50096;-63
2022/04/21 00:11:56;;;;;;;;;15.00;15.00;;;;;13.38;44.46;100848.53;4968906;28;49953;-62
2022/04/21 00:14:21;;;;;;;;;17.00;16.00;;;;;13.39;44.64;100846.78;4968652;28;49904;-63
2022/04/21 00:16:46;;;;;;;;;21.00;15.25;;;;;13.34;45.26;100849.41;4968566;28;50283;-63
2022/04/21 00:19:12;;;;;;;;;16.75;16.75;;;;;13.30;44.88;100842.31;4968728;28;49912;-62
2022/04/21 00:24:21;;;;;;;;;16.50;13.50;;;;;13.14;44.33;100830.69;4968886;28;49732;-63
2022/04/21 00:26:46;;;;;;;;;14.75;13.50;;;;;13.05;44.01;100805.97;4968477;28;50429;-63
2022/04/21 00:29:12;;;;;;;;;15.00;14.00;;;;;13.21;45.04;100839.56;4968324;28;50039;-63
2022/04/21 00:31:37;;;;;;;;;13.00;13.00;;;;;13.17;44.75;100837.75;4968348;28;49822;-63
2022/04/21 00:34:03;;;;;;;;;13.25;13.25;;;;;13.15;44.58;100837.72;4968882;28;50135;-63
2022/04/21 00:36:28;;;;;;;;;13.00;13.00;;;;;13.10;44.81;100828.88;4968381;28;49776;-63
2022/04/21 00:38:53;;;;;;;;;19.50;15.00;;;;;13.07;44.79;100827.97;4968659;28;49859;-63
2022/04/21 00:41:19;;;;;;;;;20.25;13.75;;;;;13.07;45.23;100831.47;4971154;27;50051;-63
2022/04/21 00:43:44;;;;;;;;;15.50;13.50;;;;;13.02;45.53;100824.38;4949938;28;49772;-63
2022/04/21 00:46:18;;;;;;;;;14.25;13.00;;;;;12.96;45.56;100822.56;4949344;28;57920;-62
2022/04/21 00:48:45;;;;;;;;;12.25;12.25;;;;;12.89;45.70;100812.81;4949496;28;49748;-63
2022/04/21 00:51:10;;;;;;;;;11.00;11.00;;;;;12.84;45.96;100810.13;4949650;28;49685;-63
2022/04/21 00:53:39;;;;;;;;;14.00;14.00;;;;;12.88;45.93;100822.47;4949037;28;50398;-63
2022/04/21 00:56:05;;;;;;;;;17.75;13.75;;;;;12.86;45.62;100828.59;4949492;28;50568;-63
2022/04/21 00:58:31;;;;;;;;;13.50;13.50;;;;;12.79;45.06;100814.44;4949683;28;49732;-63
2022/04/21 01:00:57;;;;;;;;;13.00;12.50;;;;;12.77;45.75;100813.53;4949778;28;49773;-63
2022/04/21 01:03:22;;;;;;;;;10.50;10.50;;;;;12.69;45.55;100811.69;4949746;28;49758;-63
2022/04/21 01:05:49;;;;;;;;;21.25;19.50;;;;;12.65;44.54;100792.31;4949430;28;50290;-65
2022/04/21 01:08:14;;;;;;;;;15.75;15.75;;;;;12.72;45.75;100812.59;4957252;28;49745;-63
2022/04/21 01:10:43;;;;;;;;;15.25;13.25;;;;;12.70;45.80;100810.81;4968489;28;49705;-63
2022/04/21 01:13:10;;;;;;;;;13.25;12.25;;;;;12.66;45.98;100806.38;4949408;28;49631;-64
2022/04/21 01:15:38;;;;;;;;;14.25;13.00;;;;;12.58;45.67;100796.63;4949414;28;50645;-63
2022/04/21 01:18:04;;;;;;;;;15.00;12.25;;;;;12.45;46.11;100785.88;4949495;28;49933;-63
2022/04/21 01:20:30;;;;;;;;;13.50;12.75;;;;;12.56;45.35;100803.63;4949592;28;49744;-65
2022/04/21 01:22:55;;;;;;;;;12.25;12.00;;;;;12.39;45.10;100770.91;4949468;28;49643;-63
2022/04/21 01:25:21;;;;;;;;;13.00;13.00;;;;;12.53;45.45;100800.94;4949131;28;50356;-63
2022/04/21 01:27:50;;;;;;;;;11.00;11.00;;;;;12.50;45.94;100808.78;4949376;28;49894;-63
2022/04/21 01:30:16;;;;;;;;;18.75;14.25;;;;;12.49;45.59;100800.88;4949150;28;49919;-63
2022/04/21 01:32:46;;;;;;;;;12.25;12.25;;;;;12.33;45.68;100782.22;4949422;28;50283;-63
2022/04/21 01:35:12;;;;;;;;;11.50;9.75;;;;;12.20;46.42;100763.63;4949099;28;51398;-64
2022/04/21 01:43:07;;;;;;;;;13.00;11.75;;;;;12.30;47.56;100797.09;4949126;28;49631;-63
2022/04/21 01:45:33;;;;;;;;;17.50;16.75;;;;;12.26;47.33;100787.41;4948686;28;51524;-64
2022/04/21 01:47:58;;;;;;;;;12.00;9.50;;;;;12.24;48.02;100789.09;4948666;28;49630;-64
2022/04/21 01:50:25;;;;;;;;;12.00;10.75;;;;;12.19;47.55;100786.44;4949104;28;50256;-63
2022/04/21 01:52:51;;;;;;;;;14.25;13.00;;;;;12.18;48.12;100781.16;4949240;28;49834;-63
2022/04/21 01:55:17;;;;;;;;;14.75;13.75;;;;;12.04;47.83;100766.00;4948846;28;50035;-62
2022/04/21 01:57:42;;;;;;;;;12.50;12.50;;;;;12.12;48.27;100778.41;4949067;28;50418;-63
2022/04/21 02:00:09;;;;;;;;;11.25;10.75;;;;;11.97;48.15;100761.56;4948499;28;49798;-66
2022/04/21 02:02:34;;;;;;;;;4.50;4.50;;;;;12.06;48.00;100773.94;4949038;28;49848;-63
2022/04/21 02:05:01;;;;;;;;;12.25;12.25;;;;;12.04;48.76;100771.28;4948922;28;50529;-64
2022/04/21 02:07:27;;;;;;;;;18.25;13.50;;;;;12.02;48.48;100769.50;4958014;28;49829;-63
2022/04/21 02:09:54;;;;;;;;;11.50;11.50;;;;;11.99;48.39;100767.72;4970565;28;49924;-63
2022/04/21 02:12:21;;;;;;;;;12.00;10.00;;;;;11.88;48.73;100750.00;4970562;28;49531;-65
2022/04/21 02:14:46;;;;;;;;;9.00;9.00;;;;;11.99;48.45;100772.09;4969927;28;50753;-63
2022/04/21 02:17:12;;;;;;;;;9.25;9.25;;;;;11.94;48.55;100763.22;4969945;28;49768;-63
2022/04/21 02:19:37;;;;;;;;;14.00;10.25;;;;;11.89;48.49;100749.13;4970166;28;49832;-66
2022/04/21 02:22:02;;;;;;;;;8.00;8.00;;;;;11.94;49.02;100763.22;4970313;28;49844;-64
2022/04/21 02:24:28;;;;;;;;;13.25;12.00;;;;;11.91;49.30;100761.44;4969941;28;50626;-66
2022/04/21 02:26:53;;;;;;;;;11.00;11.00;;;;;11.87;50.52;100756.09;4970217;28;50343;-63
2022/04/21 02:29:19;;;;;;;;;13.75;10.50;;;;;11.69;51.03;100741.78;4970020;28;49902;-67
2022/04/21 02:31:44;;;;;;;;;11.00;11.00;;;;;11.83;51.34;100759.56;4970424;28;50052;-63
2022/04/21 02:34:09;;;;;;;;;12.50;11.00;;;;;11.81;51.64;100761.28;4969913;28;50508;-67
2022/04/21 02:36:35;;;;;;;;;12.75;9.25;;;;;11.79;52.13;100758.59;4969981;28;49654;-62
2022/04/21 02:39:00;;;;;;;;;14.75;11.75;;;;;11.75;52.84;100754.13;4969917;28;49792;-67
2022/04/21 02:41:26;;;;;;;;;11.00;9.00;;;;;11.74;52.90;100752.38;4987257;27;49924;-63
2022/04/21 02:43:52;;;;;;;;;12.25;12.25;;;;;11.69;52.97;100748.78;4969469;28;50405;-64
2022/04/21 02:46:17;;;;;;;;;12.50;10.50;;;;;11.64;53.83;100748.69;4956126;28;51173;-62
2022/04/21 02:48:43;;;;;;;;;14.00;14.00;;;;;11.60;53.69;100740.75;4958729;28;49861;-62
2022/04/21 02:51:09;;;;;;;;;14.25;13.50;;;;;11.58;54.47;100746.00;4970058;28;49763;-62
2022/04/21 02:59:04;;;;;;;;;18.00;13.25;;;;;11.47;55.12;100751.03;4969436;28;50086;-62
2022/04/21 03:01:29;;;;;;;;;11.50;10.75;;;;;11.45;55.59;100751.88;4970055;28;49504;-61
2022/04/21 03:03:54;;;;;;;;;21.75;13.75;;;;;11.42;56.06;100746.59;4969445;28;49672;-62
2022/04/21 03:06:20;;;;;;;;;13.50;13.00;;;;;11.41;55.97;100747.44;4969664;28;49815;-61
2022/04/21 03:08:46;;;;;;;;;14.75;13.50;;;;;11.39;56.03;100738.66;4969627;28;49790;-62
2022/04/21 03:11:11;;;;;;;;;16.75;16.00;;;;;11.37;56.60;100748.25;4969542;28;50107;-62
2022/04/21 03:13:36;;;;;;;;;17.75;14.00;;;;;11.34;56.32;100743.81;4968775;28;56852;-62
2022/04/21 03:16:02;;;;;;;;;18.75;16.50;;;;;11.30;56.80;100734.13;4969528;28;49810;-62
2022/04/21 03:18:27;;;;;;;;;14.25;11.75;;;;;11.27;57.84;100739.31;4968834;28;50000;-62
2022/04/21 03:26:20;;;;;;;;;16.75;15.25;;;;;11.20;58.46;100733.94;4963372;28;49983;-63
2022/04/21 03:28:45;;;;;;;;;17.00;15.75;;;;;11.15;58.64;100716.34;4969073;28;49111;-63
2022/04/21 03:31:11;;;;;;;;;14.00;11.75;;;;;11.12;58.65;100713.66;4969292;28;49963;-63
2022/04/21 03:33:36;;;;;;;;;20.75;19.50;;;;;11.10;58.44;100722.38;4969105;28;49756;-63
2022/04/21 03:36:02;;;;;;;;;20.00;18.00;;;;;11.09;59.07;100712.69;4969152;28;49784;-62
2022/04/21 03:38:27;;;;;;;;;19.75;15.50;;;;;11.01;58.98;100706.44;4969302;28;49723;-63
2022/04/21 03:40:53;;;;;;;;;16.00;16.00;;;;;11.07;59.17;100709.16;4969321;28;49966;-62
2022/04/21 03:43:19;;;;;;;;;18.75;17.50;;;;;11.04;59.67;100727.50;4968942;28;49737;-63
2022/04/21 03:45:44;;;;;;;;;17.50;17.50;;;;;10.91;60.18;100702.78;4969269;28;49857;-61
2022/04/21 03:48:09;;;;;;;;;22.50;19.25;;;;;11.01;59.89;100730.97;4968896;28;49958;-63
2022/04/21 03:50:35;;;;;;;;;16.25;15.00;;;;;11.00;59.52;100720.41;4969131;28;49921;-62
2022/04/21 03:53:00;;;;;;;;;22.00;17.50;;;;;11.00;59.88;100713.44;4968840;28;54082;-62
2022/04/21 03:55:25;;;;;;;;;18.75;17.25;;;;;10.93;59.51;100708.94;4968958;28;49787;-62
2022/04/21 03:57:51;;;;;;;;;23.00;23.00;;;;;10.94;59.65;100721.22;4968996;28;49846;-62
2022/04/21 04:00:16;;;;;;;;;24.00;21.00;;;;;10.95;59.83;100724.72;4969218;28;49692;-63
2022/04/21 04:02:42;;;;;;;;;21.00;18.75;;;;;10.93;59.89;100736.94;4969071;28;50569;-62
2022/04/21 04:05:07;;;;;;;;;19.00;17.75;;;;;10.92;59.27;100729.91;4968712;28;53144;-63
2022/04/21 04:11:02;;;;;;;;;23.00;21.25;;;;;10.86;60.29;100730.69;4960147;28;49652;-61
2022/04/21 04:13:05;;;;;;;;;15.00;14.50;;;;;10.83;59.97;100726.25;4954512;28;49939;-62
2022/04/21 04:15:31;;;;;;;;;24.00;22.50;;;;;10.83;60.15;100731.50;4949817;28;49760;-62
2022/04/21 04:17:56;;;;;;;;;22.75;21.75;;;;;10.79;60.98;100732.28;4950187;28;49653;-61
2022/04/21 04:20:21;;;;;;;;;21.00;21.00;;;;;10.71;60.59;100717.25;4950328;28;49758;-61
2022/04/21 04:22:46;;;;;;;;;24.75;22.25;;;;;10.77;60.89;100733.13;4949528;28;57794;-61
2022/04/21 04:25:12;;;;;;;;;20.00;19.00;;;;;10.76;60.75;100728.72;4950008;28;49904;-62
2022/04/21 04:27:37;;;;;;;;;24.25;24.25;;;;;10.63;61.25;100704.00;4950115;28;49733;-61
2022/04/21 04:30:08;;;;;;;;;24.25;20.75;;;;;10.72;61.62;100726.91;4948537;28;49837;-61
2022/04/21 04:32:33;;;;;;;;;30.00;22.75;;;;;10.68;61.69;100725.06;4949797;28;49698;-61
2022/04/21 04:34:59;;;;;;;;;26.00;23.00;;;;;10.62;61.21;100724.97;4949880;28;49620;-61
2022/04/21 04:37:24;;;;;;;;;27.50;25.75;;;;;10.64;61.63;100729.38;4950207;28;49790;-62
2022/04/21 04:39:49;;;;;;;;;18.50;18.50;;;;;10.58;57.39;100737.13;4950068;28;49592;-63
2022/04/21 04:42:17;;;;;;;;;20.25;15.50;;;;;10.45;53.92;100717.63;4949586;28;52118;-62
2022/04/21 04:44:47;;;;;;;;;10.25;10.25;;;;;10.58;49.93;100745.00;4949558;28;49778;-61
2022/04/21 04:47:13;;;;;;;;;13.50;11.25;;;;;10.53;49.24;100733.53;4949797;28;49799;-61
2022/04/21 04:49:38;;;;;;;;;12.00;10.25;;;;;10.49;49.50;100727.31;4949897;28;49698;-62
2022/04/21 04:52:04;;;;;;;;;13.25;10.50;;;;;10.67;48.64;100749.56;4962868;28;50442;-62
2022/04/21 04:54:29;;;;;;;;;10.00;10.00;;;;;10.67;49.03;100753.06;4963568;28;49558;-61
2022/04/21 04:56:56;;;;;;;;;17.00;12.25;;;;;10.71;48.76;100759.25;4968473;28;50279;-61
2022/04/21 04:59:22;;;;;;;;;21.50;13.50;;;;;10.68;47.82;100757.44;4968187;28;49905;-61
2022/04/21 05:01:47;;;;;;;;;15.25;13.75;;;;;10.71;48.03;100759.25;4967904;28;49968;-61
2022/04/21 05:04:18;;;;;;;;;12.50;11.75;;;;;10.74;47.87;100759.34;4968507;28;49814;-62
2022/04/21 05:06:48;;;;;;;;;14.00;12.75;;;;;10.75;48.65;100745.34;4962251;28;49842;-62
2022/04/21 05:09:16;;;;;;;;;18.00;16.25;;;;;10.83;48.93;100760.41;4968042;28;50047;-63
2022/04/21 05:11:46;;;;;;;;;13.75;10.25;;;;;10.84;48.15;100756.91;4967929;28;50022;-63
2022/04/21 05:14:12;;;;;;;;;16.50;13.00;;;;;10.68;47.74;100725.06;4968193;28;49685;-63
2022/04/21 05:16:39;;;;;;;;;13.00;10.75;;;;;10.76;48.69;100742.75;4967933;28;49672;-63
2022/04/21 05:19:05;;;;;;;;;11.75;10.00;;;;;10.85;48.64;100755.16;4967915;28;49717;-63
2022/04/21 05:21:32;;;;;;;;;11.25;9.00;;;;;10.85;48.38;100766.56;4967856;28;49661;-62
2022/04/21 05:23:59;;;;;;;;;21.50;18.75;;;;;10.75;47.96;100740.97;4968152;28;49922;-62
2022/04/21 05:26:25;;;;;;;;;14.00;13.00;;;;;10.88;47.51;100765.72;4968075;28;49993;-62
2022/04/21 05:28:52;;;;;;;;;14.25;12.75;;;;;10.95;47.76;100766.75;4968287;28;49806;-63
2022/04/21 05:31:17;;;;;;;;;15.75;13.75;;;;;10.98;48.28;100759.78;4967626;28;50629;-63
2022/04/21 05:33:43;;;;;;;;;17.50;15.25;;;;;11.00;47.54;100763.34;4968108;28;49870;-62
2022/04/21 05:36:09;;;;;;;;;15.50;15.25;;;;;11.04;47.52;100753.78;4967746;28;49848;-62
2022/04/21 05:38:38;;;;;;;;;17.25;13.75;;;;;11.09;48.04;100760.00;4967891;28;49690;-63
2022/04/21 05:41:04;;;;;;;;;18.00;12.50;;;;;11.09;47.48;100750.38;4967092;28;49614;-62
2022/04/21 05:43:42;;;;;;;;;17.75;16.25;;;;;11.05;47.28;100747.66;4967781;28;50116;-62
2022/04/21 05:46:09;;;;;;;;;13.25;13.25;;;;;11.06;47.45;100749.44;4967976;28;49651;-62
2022/04/21 05:48:35;;;;;;;;;15.00;14.25;;;;;11.05;48.10;100738.03;4967848;28;49928;-62
2022/04/21 05:51:01;;;;;;;;;14.00;12.00;;;;;11.12;48.15;100750.44;4982438;28;50094;-62
2022/04/21 05:53:27;;;;;;;;;16.00;15.25;;;;;11.06;48.35;100734.56;4967355;28;49999;-62
2022/04/21 05:55:54;;;;;;;;;10.25;10.25;;;;;11.03;48.26;100734.50;4967622;28;49849;-62
2022/04/21 05:58:20;;;;;;;;;13.00;13.00;;;;;10.67;47.80;100662.91;4967777;28;49942;-62
2022/04/21 06:00:46;;;;;;;;;13.75;12.00;;;;;11.09;48.39;100745.13;4966491;28;50926;-63
2022/04/21 06:03:12;;;;;;;;;15.75;13.75;;;;;11.15;48.50;100749.59;4965821;28;50134;-73
2022/04/21 06:05:39;;;;;;;;;16.25;15.00;;;;;11.27;47.71;100751.56;4965435;28;50093;-73
2022/04/21 06:08:06;;;;;;;;;17.25;15.00;;;;;11.16;47.45;100720.72;4967645;28;49752;-66
2022/04/21 06:10:34;;;;;;;;;17.75;16.25;;;;;11.28;48.17;100742.81;4966856;28;49995;-67
2022/04/21 06:13:02;;;;;;;;;14.75;11.25;;;;;11.27;47.94;100736.69;4950729;28;49614;-67
2022/04/21 06:15:31;;;;;;;;;20.00;16.75;;;;;11.38;47.94;100740.38;4948163;28;49874;-66
2022/04/21 06:18:00;;;;;;;;;13.25;12.75;;;;;11.41;47.89;100740.44;4948686;28;50141;-66
2022/04/21 06:20:28;;;;;;;;;17.50;16.00;;;;;11.35;48.05;100734.19;4948474;28;50397;-67
2022/04/21 06:22:54;;;;;;;;;17.25;14.75;;;;;11.38;47.58;100745.63;4948636;28;49697;-68
2022/04/21 06:25:21;;;;;;;;;17.25;16.75;;;;;11.35;48.12;100740.34;4948790;28;49836;-68
2022/04/21 06:27:46;;;;;;;;;20.75;16.75;;;;;11.38;47.93;100734.22;4948887;28;49774;-68
2022/04/21 06:30:12;;;;;;;;;20.75;12.75;;;;;11.34;47.85;100719.28;4947972;28;49816;-65
2022/04/21 06:32:37;;;;;;;;;21.75;16.75;;;;;11.47;47.63;100737.03;4948552;28;49597;-66
2022/04/21 06:35:04;;;;;;;;;18.75;17.75;;;;;11.42;48.42;100736.97;4948324;28;49752;-66
2022/04/21 06:37:29;;;;;;;;;18.50;15.50;;;;;11.49;47.70;100737.97;4946756;28;50041;-67
2022/04/21 06:39:55;;;;;;;;;16.00;14.00;;;;;11.45;47.94;100715.09;4952286;28;50601;-68
2022/04/21 06:42:20;;;;;;;;;22.00;18.50;;;;;11.60;48.05;100736.38;4948869;28;49859;-67
2022/04/21 06:50:13;;;;;;;;;11.00;11.00;;;;;11.66;47.92;100718.06;4953366;28;49610;-75
2022/04/21 06:52:39;;;;;;;;;13.25;13.00;;;;;11.71;47.51;100723.41;4965393;28;49606;-76
2022/04/21 06:55:04;;;;;;;;;19.25;15.00;;;;;11.68;47.60;100718.09;4953224;28;50244;-75
2022/04/21 06:57:30;;;;;;;;;17.50;15.00;;;;;11.77;47.03;100723.47;4952531;28;49987;-72
2022/04/21 06:59:55;;;;;;;;;13.75;11.00;;;;;11.50;46.99;100670.50;4982824;28;52827;-76
2022/04/21 07:02:31;;;;;;;;;4.00;3.75;;;;;11.75;47.45;100719.94;4967978;28;49605;-75
2022/04/21 07:05:02;;;;;;;;;17.50;14.75;;;;;11.83;46.77;100725.34;4969691;28;49785;-70
2022/04/21 07:07:27;;;;;;;;;15.25;14.25;;;;;11.86;46.66;100717.50;4969878;28;49805;-70
2022/04/21 07:09:53;;;;;;;;;19.25;17.00;;;;;11.97;47.03;100729.97;4969170;28;50250;-68
2022/04/21 07:12:19;;;;;;;;;17.25;15.00;;;;;11.94;47.35;100724.66;4969332;28;49766;-70
2022/04/21 07:14:44;;;;;;;;;17.25;14.75;;;;;12.03;46.89;100731.78;4968935;28;49710;-73
2022/04/21 07:17:09;;;;;;;;;15.25;11.00;;;;;12.04;46.59;100726.53;4952608;28;49744;-70
2022/04/21 07:19:35;;;;;;;;;15.00;13.50;;;;;12.08;46.65;100716.97;4950660;28;49573;-71
2022/04/21 07:22:00;;;;;;;;;19.00;14.75;;;;;12.12;47.01;100710.88;4950939;28;49752;-71
2022/04/21 07:24:25;;;;;;;;;15.75;14.75;;;;;11.90;46.40;100666.72;4951005;28;49622;-71
2022/04/21 07:26:51;;;;;;;;;13.75;11.50;;;;;12.17;46.62;100697.78;4950616;28;49998;-71
2022/04/21 07:29:16;;;;;;;;;16.50;13.75;;;;;12.28;45.54;100706.72;4950582;28;50768;-71
2022/04/21 07:31:41;;;;;;;;;16.25;14.50;;;;;12.24;45.49;100686.47;4950414;28;49951;-70
2022/04/21 07:34:07;;;;;;;;;15.00;13.75;;;;;12.45;45.50;100715.72;4950929;28;49777;-70
2022/04/21 07:36:34;;;;;;;;;18.75;17.50;;;;;12.47;45.12;100705.19;4954862;28;49895;-69
2022/04/21 07:38:59;;;;;;;;;15.00;15.00;;;;;12.58;44.79;100707.09;4953294;28;50862;-69
2022/04/21 07:41:25;;;;;;;;;19.75;17.75;;;;;12.59;45.60;100686.91;4957844;28;49894;-71
2022/04/21 07:43:50;;;;;;;;;20.75;17.00;;;;;12.72;45.03;100707.22;4969333;28;49862;-70
2022/04/21 07:46:15;;;;;;;;;15.75;13.50;;;;;12.55;44.79;100664.03;4969125;28;49833;-70
2022/04/21 07:51:24;;;;;;;;;15.50;10.75;;;;;12.96;44.76;100698.72;4950448;28;49893;-71
2022/04/21 07:53:50;;;;;;;;;10.50;8.75;;;;;13.00;44.46;100687.31;4950419;28;49839;-70
2022/04/21 07:56:15;;;;;;;;;16.50;12.75;;;;;12.93;44.38;100653.00;4950906;28;49975;-69
2022/04/21 07:58:40;;;;;;;;;19.50;16.75;;;;;13.02;44.39;100660.97;4950418;28;50331;-69
2022/04/21 08:01:06;;;;;;;;;20.00;15.75;;;;;13.17;44.04;100688.38;4952031;28;49791;-70
2022/04/21 08:03:37;;;;;;;;;19.25;18.25;;;;;13.15;44.01;100683.97;4950075;28;49730;-70
2022/04/21 08:06:03;;;;;;;;;17.50;16.00;;;;;12.95;44.57;100640.75;4950566;28;50079;-69
2022/04/21 08:08:28;;;;;;;;;18.75;14.00;;;;;13.20;43.32;100666.47;4950102;28;50951;-73
2022/04/21 08:10:54;;;;;;;;;17.50;17.50;;;;;13.19;43.77;100659.41;4950291;28;49827;-70
2022/04/21 08:13:19;;;;;;;;;21.00;17.75;;;;;13.38;43.75;100682.44;4950598;28;49761;-69
2022/04/21 08:15:46;;;;;;;;;18.75;16.00;;;;;13.50;43.98;100680.75;4950297;28;49756;-70
2022/04/21 08:18:12;;;;;;;;;13.25;13.25;;;;;13.49;43.55;100673.72;4949930;28;51704;-69
2022/04/21 08:20:38;;;;;;;;;14.75;13.00;;;;;13.65;43.96;100691.44;4952534;28;49815;-70
2022/04/21 08:23:04;;;;;;;;;25.00;17.00;;;;;13.60;43.74;100656.22;4949952;28;49911;-70
2022/04/21 08:33:40;;;;;;;;;16.50;15.50;;;;;13.82;43.49;100665.16;4968779;28;50082;-71
2022/04/21 08:36:06;;;;;;;;;13.25;12.25;;;;;13.95;43.74;100680.19;4968792;28;49886;-71
2022/04/21 08:38:31;;;;;;;;;15.25;15.25;;;;;14.08;42.42;100687.28;4968322;28;50397;-70
2022/04/21 08:40:59;;;;;;;;;15.25;13.50;;;;;14.11;42.51;100695.25;4968257;28;49636;-70
2022/04/21 08:43:27;;;;;;;;;14.75;14.75;;;;;14.11;42.78;100692.59;4967625;28;49648;-70
2022/04/21 08:45:54;;;;;;;;;17.00;12.75;;;;;14.00;43.01;100667.91;4964571;28;49706;-69
2022/04/21 08:48:21;;;;;;;;;16.25;15.50;;;;;14.18;42.45;100683.81;4952815;28;49894;-69
2022/04/21 08:50:47;;;;;;;;;22.50;19.00;;;;;14.09;42.76;100669.69;4951934;28;49730;-71
2022/04/21 08:53:20;;;;;;;;;20.00;18.00;;;;;14.31;43.00;100685.66;4949696;28;50066;-70
2022/04/21 08:55:48;;;;;;;;;17.25;16.25;;;;;14.36;43.61;100677.75;4951134;28;49866;-70
2022/04/21 08:58:13;;;;;;;;;17.25;14.50;;;;;14.45;43.19;100672.53;4959731;28;50835;-73
2022/04/21 09:00:41;;;;;;;;;18.50;14.75;;;;;14.51;43.15;100683.13;4958224;28;49749;-70
2022/04/21 09:03:08;;;;;;;;;18.75;17.25;;;;;14.41;42.04;100648.72;4949789;28;49688;-70
2022/04/21 09:05:33;;;;;;;;;17.75;16.25;;;;;14.45;41.02;100658.44;4949817;28;49956;-71
2022/04/21 09:08:01;;;;;;;;;8.75;8.75;;;;;14.65;40.28;100682.28;4954753;28;49740;-71
2022/04/21 09:10:28;;;;;;;;;17.25;15.00;;;;;14.67;40.44;100667.31;4949701;28;49835;-70
2022/04/21 09:12:56;;;;;;;;;12.50;12.25;;;;;14.78;40.47;100677.03;4949666;28;49726;-71
2022/04/21 09:15:27;;;;;;;;;13.00;9.00;;;;;14.88;39.93;100681.47;4948467;28;49823;-67
2022/04/21 09:18:10;;;;;;;;;12.50;12.50;;;;;14.91;40.35;100677.94;4949239;28;49644;-65
2022/04/21 09:20:36;;;;;;;;;15.50;15.50;;;;;14.89;40.42;100654.16;4950643;28;49742;-65
2022/04/21 09:23:05;;;;;;;;;15.00;13.25;;;;;15.03;40.43;100666.50;4949503;28;49811;-66
2022/04/21 09:25:42;;;;;;;;;14.25;12.25;;;;;15.13;40.08;100668.28;4949601;28;49729;-66
2022/04/21 09:28:21;;;;;;;;;20.50;18.50;;;;;14.79;39.32;100588.97;4949082;28;49973;-66
2022/04/21 09:30:47;;;;;;;;;13.75;11.75;;;;;15.34;39.66;100672.69;4952155;28;49732;-65
2022/04/21 09:33:26;;;;;;;;;13.00;13.00;;;;;15.43;39.02;100660.34;4951954;28;49793;-66
2022/04/21 09:35:52;;;;;;;;;14.25;14.25;;;;;15.50;38.98;100657.69;4949256;28;49827;-66
2022/04/21 09:38:18;;;;;;;;;13.00;11.50;;;;;15.50;38.59;100655.03;4948986;28;52241;-66
2022/04/21 09:40:45;;;;;;;;;17.75;16.00;;;;;15.50;37.59;100660.34;4976703;28;49911;-65
2022/04/21 09:43:10;;;;;;;;;16.25;14.25;;;;;15.46;38.37;100648.88;4985617;28;49636;-65
2022/04/21 09:48:29;;;;;;;;;12.75;11.50;;;;;15.50;38.04;100644.47;4949035;28;49727;-63
2022/04/21 09:51:10;;;;;;;;;11.75;10.50;;;;;15.50;37.98;100626.81;4952457;28;49847;-65
2022/04/21 09:53:51;;;;;;;;;16.50;15.50;;;;;15.60;38.50;100648.84;4948958;28;49885;-66
2022/04/21 09:56:16;;;;;;;;;23.25;19.25;;;;;15.65;38.28;100628.63;4949043;28;49673;-65
2022/04/21 09:58:43;;;;;;;;;17.25;16.50;;;;;15.68;38.66;100621.53;4948809;28;51505;-66
2022/04/21 10:01:09;;;;;;;;;17.00;16.25;;;;;15.80;38.01;100632.97;4986823;28;49611;-65
2022/04/21 10:03:35;;;;;;;;;18.00;16.50;;;;;15.85;37.66;100629.44;4954672;28;49614;-65
2022/04/21 10:06:01;;;;;;;;;19.25;17.50;;;;;15.97;37.31;100629.41;4953073;28;49729;-66
2022/04/21 10:08:30;;;;;;;;;17.25;15.25;;;;;16.11;37.10;100625.81;5004800;28;50940;-66
2022/04/21 10:10:56;;;;;;;;;10.75;10.50;;;;;16.15;36.76;100614.34;4972594;28;49352;-66
2022/04/21 10:13:22;;;;;;;;;15.25;15.25;;;;;16.27;36.23;100623.09;4996485;28;49521;-64
2022/04/21 10:15:50;;;;;;;;;16.25;15.00;;;;;16.22;35.49;100619.59;4966143;28;49354;-66
2022/04/21 10:18:16;;;;;;;;;18.00;17.00;;;;;16.40;35.04;100626.56;4978897;28;49279;-63
2022/04/21 10:20:44;;;;;;;;;13.00;11.25;;;;;16.52;34.97;100610.63;4965991;28;49243;-66
2022/04/21 10:23:15;;;;;;;;;19.00;17.00;;;;;16.48;34.45;100584.13;4966014;28;49594;-66
2022/04/21 10:25:41;;;;;;;;;16.25;15.00;;;;;16.56;34.25;100580.53;4963468;28;49898;-66
2022/04/21 10:28:38;;;;;;;;;16.00;14.75;;;;;16.77;33.97;100597.22;4951113;28;50638;-67
2022/04/21 10:31:28;;;;;;;;;12.50;12.25;;;;;16.88;34.31;100590.94;4962840;28;49784;-66
2022/04/21 10:33:57;;;;;;;;;13.75;10.00;;;;;16.95;34.37;100590.91;4970829;28;49810;-67
2022/04/21 10:36:35;;;;;;;;;20.75;13.00;;;;;16.88;32.60;100588.28;4951525;28;49692;-66
2022/04/21 10:39:24;;;;;;;;;11.25;9.25;;;;;16.81;33.13;100591.03;4953052;28;49864;-65
2022/04/21 10:42:18;;;;;;;;;16.00;12.75;;;;;16.94;33.32;100582.06;4968518;28;49674;-66
2022/04/21 10:44:48;;;;;;;;;9.50;7.75;;;;;16.97;33.85;100566.13;4956439;28;49795;-68
2022/04/21 10:47:33;;;;;;;;;13.50;13.50;;;;;17.09;33.15;100563.38;4951587;28;49787;-69
2022/04/21 10:50:02;;;;;;;;;16.00;13.25;;;;;17.34;31.60;100576.41;4959190;28;49865;-71
2022/04/21 10:58:52;;;;;;;;;12.50;11.00;;;;;17.28;32.13;100582.66;4952632;28;50245;-68
2022/04/21 11:01:28;;;;;;;;;14.00;13.25;;;;;17.36;32.10;100574.59;4993533;27;51472;-68
2022/04/21 11:04:19;;;;;;;;;13.75;13.75;;;;;17.55;32.04;100576.19;4951448;28;49942;-70
2022/04/21 11:06:54;;;;;;;;;10.25;10.25;;;;;17.56;31.63;100556.69;4971970;28;49994;-69
2022/04/21 11:09:40;;;;;;;;;20.25;16.00;;;;;17.71;31.64;100572.50;4970849;28;49847;-68
2022/04/21 11:12:07;;;;;;;;;20.50;15.00;;;;;17.75;32.09;100568.03;4969124;28;49933;-67
2022/04/21 11:14:35;;;;;;;;;14.50;14.50;;;;;17.76;32.31;100563.59;4961673;28;49773;-66
2022/04/21 11:17:01;;;;;;;;;15.25;12.25;;;;;17.77;32.11;100568.91;4949149;28;49702;-66
2022/04/21 11:19:34;;;;;;;;;16.25;14.00;;;;;17.79;32.08;100555.59;4952774;28;49728;-66
2022/04/21 11:22:08;;;;;;;;;15.00;15.00;;;;;17.80;31.97;100547.63;4968243;28;50509;-65
2022/04/21 11:24:58;;;;;;;;;14.50;14.50;;;;;17.82;30.48;100548.47;4962097;27;49720;-66
2022/04/21 11:27:26;;;;;;;;;14.75;13.50;;;;;17.59;30.92;100498.28;4950924;28;49759;-66
2022/04/21 11:29:52;;;;;;;;;9.50;9.50;;;;;17.97;30.97;100523.53;4949277;28;49811;-66
2022/04/21 11:32:19;;;;;;;;;12.00;12.00;;;;;18.14;30.39;100531.22;4955772;28;50953;-66
2022/04/21 11:34:59;;;;;;;;;17.75;14.50;;;;;18.16;31.09;100534.78;4950743;28;49885;-66
2022/04/21 11:37:43;;;;;;;;;13.75;10.50;;;;;17.78;31.44;100471.56;4950754;28;49821;-65
2022/04/21 11:40:33;;;;;;;;;12.50;12.50;;;;;18.12;30.65;100531.25;4950701;28;49912;-66
2022/04/21 11:43:04;;;;;;;;;11.50;11.25;;;;;18.32;31.25;100562.88;4949968;28;50412;-66
2022/04/21 11:45:34;;;;;;;;;16.00;15.00;;;;;18.09;30.51;100518.03;4950512;28;49894;-66
2022/04/21 11:48:00;;;;;;;;;15.50;14.50;;;;;18.28;30.93;100534.59;4950488;28;49901;-66
2022/04/21 11:50:27;;;;;;;;;15.75;14.25;;;;;18.43;30.76;100533.47;4950797;28;49795;-66
2022/04/21 11:52:54;;;;;;;;;13.25;13.25;;;;;18.32;31.12;100520.34;4950445;28;50458;-66
2022/04/21 11:55:21;;;;;;;;;15.00;14.00;;;;;18.33;31.21;100532.72;4950295;28;49951;-66
2022/04/21 11:57:47;;;;;;;;;14.00;12.50;;;;;18.28;31.07;100516.00;4956790;28;49982;-66
2022/04/21 12:00:15;;;;;;;;;13.25;13.25;;;;;18.50;30.82;100522.72;4950197;28;49989;-65